Time;durP1;ratioP1;P1;durP2;ratioP2;P2;SDS_P1;SDS_P2;PMS_P1;PMS_P2;Temp;Humidity;BMP_temperature;BMP_pressure;BME280_temperature;BME280_humidity;BME280_pressure;Samples;Min_cycle;Max_cycle;Signal;HPM_P1;HPM_P2
2023/01/30 00:02:00;;;;;;;;;;;;;;;5.20;73.75;97643.16;5049938;28;4509;-79
2023/01/30 00:04:27;;;;;;;;;;;;;;;5.18;73.79;97640.75;5051399;28;4504;-79
2023/01/30 00:06:54;;;;;;;;;;;;;;;5.13;74.09;97646.06;5054323;28;4576;-79
2023/01/30 00:09:21;;;;;;;;;;;;;;;5.07;74.27;97638.28;5055017;28;5139;-79
2023/01/30 00:11:47;;;;;;;;;;;;;;;5.10;74.24;97638.56;5057255;28;4460;-79
2023/01/30 00:14:14;;;;;;;;;;;;;;;5.32;73.40;97645.66;5056611;28;4412;-79
2023/01/30 00:16:41;;;;;;;;;;;;;;;5.27;73.61;97638.44;5056030;28;4485;-80
2023/01/30 00:19:08;;;;;;;;;;;;;;;5.29;73.59;97646.16;5053965;28;4963;-79
2023/01/30 00:21:35;;;;;;;;;;;;;;;5.18;73.82;97639.97;5058981;28;4527;-79
2023/01/30 00:24:01;;;;;;;;;;;;;;;5.27;73.32;97629.63;5054727;28;4590;-79
2023/01/30 00:26:28;;;;;;;;;;;;;;;5.38;73.07;97616.09;5056792;28;5174;-79
2023/01/30 00:28:55;;;;;;;;;;;;;;;5.32;73.23;97611.75;5054485;28;4571;-79
2023/01/30 00:31:21;;;;;;;;;;;;;;;5.18;73.87;97605.28;5055512;28;4813;-79
2023/01/30 00:33:47;;;;;;;;;;;;;;;5.28;73.47;97615.22;5051251;28;4503;-79
2023/01/30 00:36:14;;;;;;;;;;;;;;;5.19;73.72;97617.53;5058111;28;4670;-79
2023/01/30 00:38:40;;;;;;;;;;;;;;;5.32;73.50;97619.75;5055373;28;4527;-79
2023/01/30 00:41:09;;;;;;;;;;;;;;;5.32;73.36;97595.75;5055822;28;5092;-79
2023/01/30 00:49:04;;;;;;;;;;;;;;;5.40;72.77;97562.44;5052806;28;4449;-79
2023/01/30 00:51:32;;;;;;;;;;;;;;;5.47;72.40;97557.66;5056612;28;4771;-79
2023/01/30 00:53:59;;;;;;;;;;;;;;;5.31;72.89;97551.44;5053025;28;4926;-79
2023/01/30 00:56:27;;;;;;;;;;;;;;;5.33;73.12;97549.31;5055671;28;4507;-79
2023/01/30 00:58:53;;;;;;;;;;;;;;;5.23;73.34;97539.41;5053257;28;4507;-79
2023/01/30 01:01:20;;;;;;;;;;;;;;;5.30;73.05;97533.84;5056189;28;4488;-79
2023/01/30 01:03:46;;;;;;;;;;;;;;;4.83;73.14;97451.16;5052628;28;4453;-79
2023/01/30 01:06:13;;;;;;;;;;;;;;;5.33;73.00;97540.53;5057648;28;4930;-79
2023/01/30 01:08:40;;;;;;;;;;;;;;;5.44;72.73;97529.63;5056138;28;4953;-79
2023/01/30 01:11:06;;;;;;;;;;;;;;;5.43;72.82;97543.22;5053800;28;4765;-79
2023/01/30 01:13:32;;;;;;;;;;;;;;;5.36;73.13;97550.69;5056017;28;5090;-79
2023/01/30 01:15:59;;;;;;;;;;;;;;;5.32;73.08;97558.38;5055799;28;4471;-79
2023/01/30 01:18:25;;;;;;;;;;;;;;;5.30;73.01;97551.72;5054619;28;4552;-79
2023/01/30 01:20:52;;;;;;;;;;;;;;;5.27;73.25;97547.69;5052872;28;4491;-79
2023/01/30 01:23:18;;;;;;;;;;;;;;;5.34;73.21;97540.25;5053591;28;4646;-79
2023/01/30 01:25:44;;;;;;;;;;;;;;;5.29;73.17;97534.88;5054117;28;4422;-79
2023/01/30 01:28:11;;;;;;;;;;;;;;;5.41;72.92;97537.34;5057121;28;4464;-79
2023/01/30 01:30:37;;;;;;;;;;;;;;;5.51;72.24;97532.06;5055816;28;4409;-79
2023/01/30 01:33:04;;;;;;;;;;;;;;;5.36;73.05;97538.13;5052255;28;4865;-79
2023/01/30 01:35:31;;;;;;;;;;;;;;;5.33;73.02;97527.19;5052319;28;4824;-79
2023/01/30 01:37:57;;;;;;;;;;;;;;;5.33;72.87;97540.53;5053427;28;4711;-80
2023/01/30 01:43:04;;;;;;;;;;;;;;;5.28;73.23;97551.16;5048506;28;4987;-79
2023/01/30 01:45:31;;;;;;;;;;;;;;;5.37;73.28;97530.94;5056162;28;4587;-79
2023/01/30 01:47:57;;;;;;;;;;;;;;;5.38;72.82;97543.19;5053888;28;4565;-79
2023/01/30 01:50:24;;;;;;;;;;;;;;;5.30;73.16;97547.19;5052816;28;5131;-79
2023/01/30 01:52:50;;;;;;;;;;;;;;;5.29;73.45;97542.09;5058271;28;5083;-80
2023/01/30 01:55:18;;;;;;;;;;;;;;;5.27;73.31;97534.34;5055105;28;4418;-79
2023/01/30 01:57:44;;;;;;;;;;;;;;;5.21;73.62;97520.19;5053211;28;4674;-79
2023/01/30 02:00:11;;;;;;;;;;;;;;;5.23;73.54;97519.91;5053907;28;4634;-79
2023/01/30 02:02:37;;;;;;;;;;;;;;;5.13;73.95;97512.66;5054226;28;4515;-79
2023/01/30 02:05:05;;;;;;;;;;;;;;;5.20;73.53;97496.41;5052046;28;4536;-79
2023/01/30 02:07:32;;;;;;;;;;;;;;;5.19;73.77;97497.47;5054978;28;4580;-79
2023/01/30 02:10:00;;;;;;;;;;;;;;;5.25;73.34;97488.44;5050355;28;4440;-79
2023/01/30 02:12:27;;;;;;;;;;;;;;;5.21;73.44;97493.50;5054939;28;4468;-79
2023/01/30 02:14:55;;;;;;;;;;;;;;;5.14;73.79;97494.78;5051307;28;4434;-79
2023/01/30 02:17:21;;;;;;;;;;;;;;;5.25;73.42;97485.78;5052730;28;4472;-79
2023/01/30 02:19:50;;;;;;;;;;;;;;;5.20;73.47;97477.72;5053685;28;4533;-79
2023/01/30 02:22:16;;;;;;;;;;;;;;;5.22;73.59;97483.63;5054063;28;5011;-79
2023/01/30 02:24:44;;;;;;;;;;;;;;;5.17;73.77;97484.38;5052912;28;4655;-79
2023/01/30 02:27:10;;;;;;;;;;;;;;;5.21;73.61;97490.81;5051541;28;4412;-79
2023/01/30 02:29:37;;;;;;;;;;;;;;;5.28;73.22;97485.25;5055037;28;4429;-79
2023/01/30 02:32:03;;;;;;;;;;;;;;;5.20;73.38;97485.72;5049895;28;4582;-80
2023/01/30 02:34:30;;;;;;;;;;;;;;;5.23;73.40;97478.03;5056489;28;4448;-79
2023/01/30 02:36:56;;;;;;;;;;;;;;;5.22;73.45;97478.28;5051559;28;4446;-79
2023/01/30 02:39:23;;;;;;;;;;;;;;;5.23;73.09;97470.03;5053238;28;4485;-79
2023/01/30 02:41:50;;;;;;;;;;;;;;;5.16;73.38;97476.66;5051248;28;4920;-79
2023/01/30 02:44:16;;;;;;;;;;;;;;;5.15;73.42;97475.06;5049043;28;4571;-79
2023/01/30 02:46:42;;;;;;;;;;;;;;;5.19;73.69;97476.13;5056765;28;4714;-79
2023/01/30 02:49:09;;;;;;;;;;;;;;;5.15;73.65;97477.72;5051669;28;4919;-79
2023/01/30 02:51:36;;;;;;;;;;;;;;;5.17;73.73;97484.38;5052350;28;4683;-79
2023/01/30 02:54:03;;;;;;;;;;;;;;;5.20;73.21;97483.88;5057497;28;4647;-79
2023/01/30 02:56:29;;;;;;;;;;;;;;;5.17;73.32;97487.06;5053582;28;4835;-80
2023/01/30 02:58:56;;;;;;;;;;;;;;;5.18;73.40;97482.53;5051528;28;4823;-79
2023/01/30 03:01:22;;;;;;;;;;;;;;;5.27;73.17;97482.84;5054056;28;4805;-79
2023/01/30 03:03:50;;;;;;;;;;;;;;;5.15;73.48;97475.84;5052937;28;4867;-79
2023/01/30 03:06:17;;;;;;;;;;;;;;;5.16;73.39;97474.78;5052437;28;4607;-79
2023/01/30 03:08:43;;;;;;;;;;;;;;;5.13;73.69;97469.97;5051531;28;4973;-79
2023/01/30 03:11:10;;;;;;;;;;;;;;;5.29;73.00;97472.69;5054789;28;4677;-79
2023/01/30 03:13:36;;;;;;;;;;;;;;;5.24;73.52;97468.16;5051022;28;4838;-79
2023/01/30 03:16:02;;;;;;;;;;;;;;;5.28;73.15;97476.44;5055201;28;4953;-79
2023/01/30 03:18:29;;;;;;;;;;;;;;;5.14;73.46;97482.22;5053284;28;4864;-79
2023/01/30 03:20:55;;;;;;;;;;;;;;;5.28;73.20;97482.56;5053650;28;4857;-79
2023/01/30 03:23:21;;;;;;;;;;;;;;;5.28;73.14;97469.22;5031980;28;4806;-79
2023/01/30 03:25:48;;;;;;;;;;;;;;;5.26;73.29;97474.03;5039754;28;4343;-79
2023/01/30 03:28:14;;;;;;;;;;;;;;;5.16;73.59;97484.66;5030055;28;4431;-78
2023/01/30 03:30:41;;;;;;;;;;;;;;;5.30;73.10;97479.66;5033356;28;4766;-79
2023/01/30 03:33:08;;;;;;;;;;;;;;;5.34;72.95;97470.06;5032229;28;4658;-79
2023/01/30 03:35:34;;;;;;;;;;;;;;;5.40;72.73;97463.69;5032922;28;4507;-79
2023/01/30 03:38:01;;;;;;;;;;;;;;;5.32;72.96;97462.31;5033873;28;4593;-79
2023/01/30 03:40:28;;;;;;;;;;;;;;;5.16;73.33;97466.78;5039554;28;4549;-79
2023/01/30 03:42:54;;;;;;;;;;;;;;;5.28;73.25;97455.09;5038121;28;5213;-79
2023/01/30 03:45:21;;;;;;;;;;;;;;;5.33;72.95;97455.13;5042449;28;4766;-79
2023/01/30 03:47:47;;;;;;;;;;;;;;;5.37;72.68;97448.19;5036151;28;4945;-79
2023/01/30 03:50:14;;;;;;;;;;;;;;;5.38;72.81;97447.94;5035100;28;4479;-79
2023/01/30 03:52:41;;;;;;;;;;;;;;;5.43;72.37;97447.13;5040757;28;4591;-79
2023/01/30 03:55:08;;;;;;;;;;;;;;;5.53;71.98;97435.69;5038943;28;4766;-79
2023/01/30 03:57:35;;;;;;;;;;;;;;;5.47;72.17;97430.34;5039504;28;5260;-79
2023/01/30 04:00:03;;;;;;;;;;;;;;;5.46;72.33;97422.59;5034790;28;4447;-79
2023/01/30 04:02:30;;;;;;;;;;;;;;;5.40;72.32;97424.44;5055499;28;4270;-79
2023/01/30 04:04:57;;;;;;;;;;;;;;;5.40;72.45;97423.66;5036373;28;4763;-79
2023/01/30 04:07:23;;;;;;;;;;;;;;;5.32;72.71;97429.47;5038658;28;4648;-79
2023/01/30 04:09:50;;;;;;;;;;;;;;;5.42;72.39;97430.31;5039048;28;4413;-79
2023/01/30 04:12:17;;;;;;;;;;;;;;;5.44;72.41;97435.38;5040679;28;4416;-79
2023/01/30 04:15:11;;;;;;;;;;;;;;;5.35;72.74;97428.97;5038341;28;4618;-79
2023/01/30 04:18:04;;;;;;;;;;;;;;;5.37;72.71;97432.97;5038395;28;4712;-79
2023/01/30 04:20:57;;;;;;;;;;;;;;;5.53;71.78;97422.34;5045479;28;4650;-79
2023/01/30 04:23:49;;;;;;;;;;;;;;;5.45;72.66;97419.13;5043009;28;4344;-79
2023/01/30 04:26:42;;;;;;;;;;;;;;;5.55;72.03;97417.53;5035479;28;4490;-79
2023/01/30 04:29:34;;;;;;;;;;;;;;;5.56;71.73;97421.81;5036667;28;4744;-79
2023/01/30 04:32:26;;;;;;;;;;;;;;;5.47;72.13;97417.00;5037418;28;4793;-79
2023/01/30 04:35:19;;;;;;;;;;;;;;;5.53;71.79;97417.81;5034683;28;4271;-79
2023/01/30 04:38:11;;;;;;;;;;;;;;;5.51;71.89;97408.47;5038543;28;4783;-79
2023/01/30 04:41:02;;;;;;;;;;;;;;;5.50;72.11;97414.84;5038364;28;4277;-79
2023/01/30 04:43:54;;;;;;;;;;;;;;;5.57;71.92;97426.09;5037106;28;4919;-79
2023/01/30 04:46:47;;;;;;;;;;;;;;;5.54;71.81;97423.97;5042837;28;4376;-79
2023/01/30 04:49:39;;;;;;;;;;;;;;;5.63;71.65;97441.06;5038893;28;4471;-79
2023/01/30 04:52:30;;;;;;;;;;;;;;;5.72;71.22;97423.47;5043197;28;4660;-79
2023/01/30 04:55:22;;;;;;;;;;;;;;;5.59;71.87;97418.63;5039947;28;4702;-79
2023/01/30 04:58:15;;;;;;;;;;;;;;;5.84;71.14;97405.31;5038722;28;4385;-79
2023/01/30 05:01:08;;;;;;;;;;;;;;;5.78;70.78;97410.94;5040421;28;4336;-80
2023/01/30 05:04:00;;;;;;;;;;;;;;;5.70;71.19;97436.28;5040056;28;5084;-79
2023/01/30 05:06:54;;;;;;;;;;;;;;;5.70;71.29;97446.94;5041012;28;4565;-79
2023/01/30 05:09:45;;;;;;;;;;;;;;;5.77;71.30;97434.16;5037767;28;4749;-79
2023/01/30 05:12:38;;;;;;;;;;;;;;;5.77;71.11;97422.69;5039294;28;4415;-79
2023/01/30 05:15:29;;;;;;;;;;;;;;;5.77;71.11;97418.13;5040854;28;4327;-79
2023/01/30 05:18:21;;;;;;;;;;;;;;;5.83;70.75;97421.63;5041401;28;4537;-79
2023/01/30 05:21:14;;;;;;;;;;;;;;;5.86;70.64;97426.44;5039046;28;4805;-79
2023/01/30 05:24:05;;;;;;;;;;;;;;;5.89;70.67;97423.22;5055774;28;4827;-79
2023/01/30 05:26:57;;;;;;;;;;;;;;;5.73;71.29;97414.38;5059037;28;4796;-79
2023/01/30 05:29:49;;;;;;;;;;;;;;;5.66;71.51;97419.97;5043458;28;4303;-79
2023/01/30 05:32:42;;;;;;;;;;;;;;;5.76;71.24;97413.03;5038361;28;4410;-79
2023/01/30 05:35:35;;;;;;;;;;;;;;;5.87;70.89;97436.84;5040583;28;4419;-79
2023/01/30 05:38:27;;;;;;;;;;;;;;;5.89;70.71;97429.38;5037529;28;4492;-79
2023/01/30 05:41:19;;;;;;;;;;;;;;;5.87;70.92;97434.16;5036616;28;4502;-79
2023/01/30 05:44:11;;;;;;;;;;;;;;;5.90;70.89;97420.28;5037777;28;4757;-79
2023/01/30 05:47:04;;;;;;;;;;;;;;;5.79;71.33;97420.53;5043134;28;4907;-79
2023/01/30 05:49:56;;;;;;;;;;;;;;;5.88;71.09;97418.94;5037846;28;5080;-79
2023/01/30 05:52:48;;;;;;;;;;;;;;;5.87;71.24;97407.47;5035806;28;4288;-79
2023/01/30 05:55:42;;;;;;;;;;;;;;;5.95;70.76;97414.19;5038659;28;4518;-79
2023/01/30 05:58:36;;;;;;;;;;;;;;;5.89;70.83;97396.53;5036238;28;4418;-79
2023/01/30 06:01:27;;;;;;;;;;;;;;;5.94;71.09;97406.41;5047420;28;5044;-79
2023/01/30 06:04:19;;;;;;;;;;;;;;;5.84;71.19;97416.00;5036676;28;4292;-79
2023/01/30 06:07:11;;;;;;;;;;;;;;;5.86;71.14;97426.44;5038431;28;4376;-79
2023/01/30 06:10:05;;;;;;;;;;;;;;;5.90;71.10;97416.81;5038841;28;4690;-79
2023/01/30 06:12:56;;;;;;;;;;;;;;;5.82;71.26;97407.44;5035239;28;4545;-79
2023/01/30 06:15:48;;;;;;;;;;;;;;;5.78;71.52;97419.72;5038452;28;4667;-79
2023/01/30 06:18:40;;;;;;;;;;;;;;;5.87;70.88;97431.50;5034926;28;4558;-79
2023/01/30 06:21:33;;;;;;;;;;;;;;;5.78;71.23;97438.44;5054102;28;4751;-79
2023/01/30 06:24:25;;;;;;;;;;;;;;;5.91;70.97;97437.09;5053893;28;4497;-79
2023/01/30 06:27:18;;;;;;;;;;;;;;;5.90;70.92;97441.66;5057059;28;4486;-79
2023/01/30 06:30:09;;;;;;;;;;;;;;;5.84;71.07;97448.06;5059135;28;4416;-79
2023/01/30 06:33:00;;;;;;;;;;;;;;;5.72;71.42;97446.69;5058457;28;4820;-79
2023/01/30 06:35:53;;;;;;;;;;;;;;;5.84;71.25;97449.91;5057833;28;4566;-79
2023/01/30 06:38:45;;;;;;;;;;;;;;;5.79;71.47;97458.72;5056791;28;4718;-79
2023/01/30 06:41:36;;;;;;;;;;;;;;;5.79;71.56;97436.56;5055854;28;5103;-79
2023/01/30 06:44:29;;;;;;;;;;;;;;;5.80;71.25;97438.19;5052374;28;4957;-79
2023/01/30 06:47:21;;;;;;;;;;;;;;;5.80;71.22;97438.97;5051006;28;4737;-79
2023/01/30 06:50:14;;;;;;;;;;;;;;;5.87;71.15;97436.84;5050244;28;4608;-79
2023/01/30 06:53:05;;;;;;;;;;;;;;;5.88;71.18;97442.97;5050043;28;4602;-79
2023/01/30 06:55:57;;;;;;;;;;;;;;;5.81;71.25;97445.91;5053823;28;4961;-79
2023/01/30 06:58:49;;;;;;;;;;;;;;;5.83;71.14;97451.78;5053754;28;4493;-79
2023/01/30 07:01:40;;;;;;;;;;;;;;;5.61;72.00;97448.53;5056746;28;5101;-79
2023/01/30 07:04:33;;;;;;;;;;;;;;;5.77;71.72;97452.06;5043750;28;4671;-79
2023/01/30 07:07:25;;;;;;;;;;;;;;;5.75;71.54;97457.66;5042451;28;4318;-79
2023/01/30 07:10:16;;;;;;;;;;;;;;;5.69;71.80;97456.03;5036648;28;4476;-79
2023/01/30 07:13:08;;;;;;;;;;;;;;;5.69;71.89;97446.16;5037056;28;4403;-79
2023/01/30 07:16:01;;;;;;;;;;;;;;;5.66;72.17;97465.38;5042613;28;4529;-79
2023/01/30 07:18:55;;;;;;;;;;;;;;;5.73;71.73;97459.78;5034432;28;4400;-79
2023/01/30 07:21:47;;;;;;;;;;;;;;;5.76;71.37;97469.13;5034055;28;4466;-79
2023/01/30 07:24:41;;;;;;;;;;;;;;;5.72;71.58;97463.53;5036798;28;4614;-79
2023/01/30 07:27:33;;;;;;;;;;;;;;;5.70;71.84;97471.78;5042451;28;4309;-79
2023/01/30 07:30:25;;;;;;;;;;;;;;;5.64;71.87;97469.38;5038260;28;4499;-79
2023/01/30 07:33:18;;;;;;;;;;;;;;;5.64;71.95;97486.19;5039052;28;4968;-79
2023/01/30 07:36:09;;;;;;;;;;;;;;;5.64;72.12;97485.38;5035526;28;4808;-79
2023/01/30 07:39:01;;;;;;;;;;;;;;;5.61;72.01;97484.03;5047793;28;5051;-79
2023/01/30 07:41:53;;;;;;;;;;;;;;;5.65;71.72;97493.16;5050133;28;4563;-79
2023/01/30 07:44:46;;;;;;;;;;;;;;;5.65;72.04;97498.50;5057414;28;4761;-79
2023/01/30 07:47:39;;;;;;;;;;;;;;;5.64;72.16;97496.84;5052464;28;4887;-79
2023/01/30 07:50:31;;;;;;;;;;;;;;;5.58;72.00;97497.91;5036759;28;4195;-79
2023/01/30 07:53:23;;;;;;;;;;;;;;;5.58;72.25;97499.78;5037051;28;4641;-79
2023/01/30 07:56:17;;;;;;;;;;;;;;;5.70;71.89;97497.69;5040046;28;4649;-79
2023/01/30 07:59:10;;;;;;;;;;;;;;;5.73;71.72;97507.03;5040643;28;4961;-79
2023/01/30 08:02:01;;;;;;;;;;;;;;;5.52;72.17;97520.31;5036278;28;4813;-79
2023/01/30 08:04:52;;;;;;;;;;;;;;;5.64;71.86;97517.44;5035048;28;4462;-79
2023/01/30 08:07:46;;;;;;;;;;;;;;;5.67;71.91;97527.59;5040486;28;4618;-79
2023/01/30 08:10:37;;;;;;;;;;;;;;;5.63;71.96;97542.53;5037332;28;4634;-79
2023/01/30 08:13:29;;;;;;;;;;;;;;;5.55;72.25;97557.16;5041032;28;4626;-79
2023/01/30 08:16:23;;;;;;;;;;;;;;;5.68;71.82;97559.38;5036857;28;4671;-79
2023/01/30 08:19:16;;;;;;;;;;;;;;;5.53;71.97;97564.66;5054351;28;4840;-79
2023/01/30 08:22:09;;;;;;;;;;;;;;;5.54;72.24;97571.59;5065172;28;4262;-79
2023/01/30 08:25:02;;;;;;;;;;;;;;;5.56;72.32;97576.66;5064809;28;4362;-79
2023/01/30 08:27:53;;;;;;;;;;;;;;;5.58;72.23;97579.88;5068608;28;2374;-79
2023/01/30 08:30:45;;;;;;;;;;;;;;;5.58;72.46;97578.00;5069775;28;2441;-79
2023/01/30 08:33:37;;;;;;;;;;;;;;;5.50;72.38;97583.84;5058734;28;1638;-79
2023/01/30 08:36:29;;;;;;;;;;;;;;;5.44;72.81;97588.38;5063758;28;1961;-79
2023/01/30 08:39:21;;;;;;;;;;;;;;;5.44;72.67;97592.88;5058653;28;2416;-79
2023/01/30 08:42:14;;;;;;;;;;;;;;;5.52;72.48;97591.59;5062017;28;1924;-79
2023/01/30 08:45:06;;;;;;;;;;;;;;;5.51;72.59;97598.00;5064009;28;1693;-79
2023/01/30 08:47:59;;;;;;;;;;;;;;;5.47;72.83;97611.88;5059658;28;2391;-79
2023/01/30 08:50:51;;;;;;;;;;;;;;;5.41;72.81;97618.25;5064447;28;1660;-79
2023/01/30 08:53:43;;;;;;;;;;;;;;;5.37;72.91;97619.00;5063382;28;2556;-79
2023/01/30 08:56:36;;;;;;;;;;;;;;;5.38;72.97;97634.78;5067107;28;1957;-79
2023/01/30 08:59:28;;;;;;;;;;;;;;;5.44;72.55;97636.41;5049804;28;4684;-79
2023/01/30 09:02:21;;;;;;;;;;;;;;;5.39;72.74;97648.91;5059716;28;4548;-79
2023/01/30 09:05:13;;;;;;;;;;;;;;;5.39;72.91;97649.72;5062575;28;1998;-79
2023/01/30 09:08:07;;;;;;;;;;;;;;;5.45;72.65;97661.22;5062562;28;1640;-80
2023/01/30 09:10:59;;;;;;;;;;;;;;;5.39;73.08;97665.72;5063120;28;1362;-80
2023/01/30 09:13:51;;;;;;;;;;;;;;;5.51;72.51;97670.09;5064306;28;1889;-80
2023/01/30 09:16:45;;;;;;;;;;;;;;;5.44;72.42;97663.09;5051087;28;2211;-79
2023/01/30 09:19:37;;;;;;;;;;;;;;;5.37;72.99;97667.84;5057528;28;3870;-80
2023/01/30 09:22:29;;;;;;;;;;;;;;;5.32;73.07;97677.66;5068776;28;2124;-80
2023/01/30 09:25:21;;;;;;;;;;;;;;;5.20;73.53;97683.97;5066393;28;4538;-80
2023/01/30 09:28:14;;;;;;;;;;;;;;;5.26;73.24;97687.50;5057378;28;4764;-80
2023/01/30 09:31:06;;;;;;;;;;;;;;;5.31;73.00;97698.22;5050851;28;4627;-79
2023/01/30 09:33:58;;;;;;;;;;;;;;;5.25;73.36;97701.91;5054152;28;4699;-79
2023/01/30 09:36:51;;;;;;;;;;;;;;;5.32;73.18;97713.16;5056021;28;4941;-79
2023/01/30 09:39:43;;;;;;;;;;;;;;;5.27;73.48;97712.34;5055839;28;4291;-79
2023/01/30 09:42:36;;;;;;;;;;;;;;;5.29;73.43;97711.00;5055061;28;4447;-79
2023/01/30 09:45:28;;;;;;;;;;;;;;;5.28;73.23;97709.41;5054979;28;4735;-79
2023/01/30 09:48:20;;;;;;;;;;;;;;;5.19;73.65;97719.75;5052175;28;4303;-79
2023/01/30 09:51:13;;;;;;;;;;;;;;;5.30;73.33;97727.84;5052643;28;4461;-79
2023/01/30 09:54:04;;;;;;;;;;;;;;;5.27;73.32;97731.03;5052121;28;4431;-79
2023/01/30 09:56:55;;;;;;;;;;;;;;;5.22;73.48;97737.91;5047790;28;4172;-79
2023/01/30 09:59:21;;;;;;;;;;;;;;;5.20;73.59;97731.22;5053534;28;4457;-79
2023/01/30 10:01:48;;;;;;;;;;;;;;;5.24;73.37;97737.66;5055499;28;4919;-79
2023/01/30 10:04:40;;;;;;;;;;;;;;;5.15;73.79;97745.34;5053715;28;4879;-80
2023/01/30 10:07:32;;;;;;;;;;;;;;;5.23;73.60;97754.72;5056733;28;5013;-79
2023/01/30 10:10:25;;;;;;;;;;;;;;;5.33;73.08;97773.50;5056130;28;4801;-79
2023/01/30 10:13:17;;;;;;;;;;;;;;;5.24;73.56;97772.38;5052672;28;4806;-79
2023/01/30 10:16:08;;;;;;;;;;;;;;;5.18;73.78;97784.84;5050264;28;4816;-79
2023/01/30 10:19:00;;;;;;;;;;;;;;;5.15;73.84;97796.03;5035833;28;4884;-79
2023/01/30 10:21:52;;;;;;;;;;;;;;;5.14;73.88;97799.72;5037253;28;4492;-79
2023/01/30 10:24:45;;;;;;;;;;;;;;;5.15;74.01;97800.56;5041610;28;4704;-79
2023/01/30 10:27:37;;;;;;;;;;;;;;;5.15;73.97;97821.91;5037081;28;4728;-80
2023/01/30 10:30:29;;;;;;;;;;;;;;;5.11;74.02;97829.59;5037234;28;4903;-79
2023/01/30 10:33:21;;;;;;;;;;;;;;;5.14;73.84;97823.75;5038097;28;4206;-79
2023/01/30 10:36:13;;;;;;;;;;;;;;;5.12;74.02;97825.06;5038571;28;4138;-79
2023/01/30 10:39:05;;;;;;;;;;;;;;;5.15;73.64;97836.06;5041453;28;4772;-79
2023/01/30 10:41:58;;;;;;;;;;;;;;;5.13;74.08;97854.16;5037570;28;4648;-79
2023/01/30 10:44:51;;;;;;;;;;;;;;;5.10;73.88;97853.84;5040446;28;4579;-80
2023/01/30 10:47:43;;;;;;;;;;;;;;;5.11;74.04;97861.59;5035011;28;4229;-80
2023/01/30 10:50:37;;;;;;;;;;;;;;;5.10;73.56;97856.53;5056800;28;4712;-80
2023/01/30 10:53:28;;;;;;;;;;;;;;;5.09;74.05;97871.75;5057237;28;5473;-80
2023/01/30 10:56:20;;;;;;;;;;;;;;;5.11;74.00;97877.59;5036975;28;4794;-79
2023/01/30 10:59:11;;;;;;;;;;;;;;;5.12;73.98;97883.78;5035156;28;4659;-80
2023/01/30 11:02:03;;;;;;;;;;;;;;;5.10;73.95;97894.69;5039026;28;4524;-80
2023/01/30 11:04:54;;;;;;;;;;;;;;;5.07;74.07;97905.84;5036140;28;4996;-80
2023/01/30 11:07:47;;;;;;;;;;;;;;;5.07;74.27;97897.84;5045439;28;4859;-80
2023/01/30 11:10:42;;;;;;;;;;;;;;;5.06;74.28;97895.41;5038466;28;4826;-80
2023/01/30 11:13:36;;;;;;;;;;;;;;;5.07;74.14;97903.19;5036919;28;4678;-79
2023/01/30 11:16:31;;;;;;;;;;;;;;;5.06;74.18;97906.09;5039115;28;4720;-80
2023/01/30 11:19:23;;;;;;;;;;;;;;;5.08;74.11;97912.78;5035257;28;4439;-79
2023/01/30 11:22:16;;;;;;;;;;;;;;;5.05;74.41;97915.16;5037695;28;4503;-80
2023/01/30 11:25:08;;;;;;;;;;;;;;;5.08;74.27;97936.81;5036432;28;4282;-80
2023/01/30 11:28:00;;;;;;;;;;;;;;;5.10;74.27;97945.38;5037764;28;4576;-79
2023/01/30 11:30:53;;;;;;;;;;;;;;;5.10;74.32;97952.56;5040108;28;4692;-80
2023/01/30 11:33:45;;;;;;;;;;;;;;;5.10;74.37;97949.91;5040167;28;4114;-80
2023/01/30 11:36:37;;;;;;;;;;;;;;;4.61;74.28;97893.78;5032807;28;4701;-80
2023/01/30 11:39:30;;;;;;;;;;;;;;;5.10;74.29;97961.38;5034545;28;4150;-80
2023/01/30 11:42:21;;;;;;;;;;;;;;;5.08;74.36;97971.50;5037749;28;4823;-80
2023/01/30 11:45:13;;;;;;;;;;;;;;;5.09;74.39;97980.28;5050017;28;4666;-79
2023/01/30 11:48:05;;;;;;;;;;;;;;;5.09;74.39;97973.13;5038113;28;4394;-80
2023/01/30 11:51:00;;;;;;;;;;;;;;;5.09;74.52;97986.47;5038115;28;4214;-80
2023/01/30 11:53:52;;;;;;;;;;;;;;;5.10;74.47;98001.41;5040076;28;4284;-80
2023/01/30 11:56:44;;;;;;;;;;;;;;;5.10;74.61;98006.75;5036301;28;4406;-80
2023/01/30 11:59:13;;;;;;;;;;;;;;;5.09;74.63;98013.13;5049133;28;4780;-80
2023/01/30 12:02:05;;;;;;;;;;;;;;;5.10;74.39;98011.28;5050637;28;4759;-80
2023/01/30 12:04:57;;;;;;;;;;;;;;;5.10;74.50;98014.75;5057998;28;4755;-80
2023/01/30 12:07:49;;;;;;;;;;;;;;;5.10;74.48;98021.94;5058645;28;4856;-80
2023/01/30 12:10:41;;;;;;;;;;;;;;;5.10;74.70;98032.63;5058810;28;5417;-80
2023/01/30 12:13:33;;;;;;;;;;;;;;;5.11;74.66;98040.38;5058809;28;4768;-80
2023/01/30 12:16:26;;;;;;;;;;;;;;;5.11;74.58;98055.56;5058336;28;5407;-80
2023/01/30 12:19:18;;;;;;;;;;;;;;;5.10;74.88;98045.97;5054531;28;4477;-80
2023/01/30 12:22:10;;;;;;;;;;;;;;;5.10;74.59;98041.44;5062236;28;4452;-80
2023/01/30 12:25:02;;;;;;;;;;;;;;;5.09;74.85;98039.81;5054290;28;4647;-80
2023/01/30 12:27:55;;;;;;;;;;;;;;;5.10;74.62;98052.09;5050442;28;4855;-79
2023/01/30 12:30:46;;;;;;;;;;;;;;;5.14;74.62;98063.09;5043587;28;4725;-80
2023/01/30 12:33:38;;;;;;;;;;;;;;;5.11;74.72;98075.06;5046125;28;4974;-80
2023/01/30 12:36:30;;;;;;;;;;;;;;;5.11;74.76;98083.06;5055987;28;4850;-80
2023/01/30 12:39:22;;;;;;;;;;;;;;;5.11;74.98;98092.91;5059849;28;5339;-80
2023/01/30 12:42:14;;;;;;;;;;;;;;;5.13;74.75;98101.50;5059607;28;4803;-79
2023/01/30 12:45:06;;;;;;;;;;;;;;;5.12;74.92;98103.38;5063057;28;4492;-80
2023/01/30 12:47:58;;;;;;;;;;;;;;;5.13;74.93;98109.50;5051718;28;4355;-80
2023/01/30 12:50:51;;;;;;;;;;;;;;;5.15;75.02;98110.09;5048906;28;4409;-80
2023/01/30 12:53:43;;;;;;;;;;;;;;;5.16;74.93;98107.16;5055096;28;4887;-80
2023/01/30 12:56:37;;;;;;;;;;;;;;;5.18;74.81;98120.25;5057807;28;5132;-80
2023/01/30 12:59:28;;;;;;;;;;;;;;;5.17;74.84;98129.31;5056867;28;4786;-80
2023/01/30 13:02:19;;;;;;;;;;;;;;;5.17;74.84;98137.31;5054621;28;4266;-80
2023/01/30 13:05:11;;;;;;;;;;;;;;;5.18;74.94;98154.97;5057711;28;4600;-80
2023/01/30 13:08:03;;;;;;;;;;;;;;;5.17;74.89;98154.13;5056708;28;4686;-80
2023/01/30 13:10:55;;;;;;;;;;;;;;;5.19;74.82;98164.56;5053065;28;5243;-80
2023/01/30 13:13:47;;;;;;;;;;;;;;;5.20;74.95;98168.84;5058136;28;5226;-80
2023/01/30 13:16:38;;;;;;;;;;;;;;;5.21;74.77;98194.50;5058626;28;4641;-80
2023/01/30 13:19:30;;;;;;;;;;;;;;;5.23;74.93;98203.06;5051852;28;4459;-80
2023/01/30 13:21:57;;;;;;;;;;;;;;;5.22;74.94;98207.59;5058743;28;4893;-81
2023/01/30 13:24:50;;;;;;;;;;;;;;;5.23;74.99;98208.38;5053623;28;5154;-80
2023/01/30 13:27:42;;;;;;;;;;;;;;;5.23;75.13;98213.72;5056121;28;5236;-81
2023/01/30 13:30:34;;;;;;;;;;;;;;;5.27;74.95;98230.09;5059849;28;4258;-80
2023/01/30 13:33:27;;;;;;;;;;;;;;;5.25;75.10;98235.66;5059707;28;4971;-80
2023/01/30 13:36:18;;;;;;;;;;;;;;;5.26;74.96;98237.25;5054126;28;4644;-80
2023/01/30 13:39:12;;;;;;;;;;;;;;;5.27;75.10;98246.91;5057482;28;4803;-80
2023/01/30 13:42:05;;;;;;;;;;;;;;;5.28;75.09;98253.84;5055382;28;5131;-80
2023/01/30 13:44:58;;;;;;;;;;;;;;;5.29;74.99;98258.13;5053431;28;4818;-80
2023/01/30 13:47:49;;;;;;;;;;;;;;;5.31;75.18;98277.41;5054545;28;4864;-80
2023/01/30 13:50:41;;;;;;;;;;;;;;;5.31;75.10;98285.41;5054822;28;4636;-80
2023/01/30 13:53:33;;;;;;;;;;;;;;;5.34;75.13;98300.94;5052098;28;4487;-80
2023/01/30 13:56:26;;;;;;;;;;;;;;;5.34;74.94;98298.25;5052133;28;4771;-80
2023/01/30 13:59:17;;;;;;;;;;;;;;;5.35;75.19;98315.88;5051880;28;4306;-80
2023/01/30 14:02:09;;;;;;;;;;;;;;;5.36;75.02;98322.06;5047155;28;4813;-80
2023/01/30 14:05:04;;;;;;;;;;;;;;;5.38;75.04;98325.28;5052723;28;4368;-80
2023/01/30 14:07:56;;;;;;;;;;;;;;;5.39;75.03;98341.06;5055063;28;4815;-80
2023/01/30 14:10:50;;;;;;;;;;;;;;;5.39;75.12;98345.59;5054430;28;5025;-80
2023/01/30 14:13:41;;;;;;;;;;;;;;;5.40;75.30;98360.56;5055790;28;4897;-80
2023/01/30 14:16:33;;;;;;;;;;;;;;;5.39;75.03;98359.75;5054951;28;4304;-80
2023/01/30 14:19:25;;;;;;;;;;;;;;;5.41;75.04;98378.19;5051205;28;4440;-80
2023/01/30 14:22:18;;;;;;;;;;;;;;;5.42;75.05;98385.19;5051358;28;4370;-80
2023/01/30 14:25:09;;;;;;;;;;;;;;;5.43;74.79;98389.44;5056524;28;4948;-80
2023/01/30 14:28:01;;;;;;;;;;;;;;;5.42;75.10;98395.84;5056693;28;4882;-79
2023/01/30 14:30:54;;;;;;;;;;;;;;;5.44;75.11;98399.06;5056513;28;4799;-80
2023/01/30 14:33:20;;;;;;;;;;;;;;;5.44;75.47;98402.56;5053601;28;4903;-80
2023/01/30 14:35:47;;;;;;;;;;;;;;;5.45;75.50;98404.19;5055943;28;4450;-80
2023/01/30 14:38:13;;;;;;;;;;;;;;;5.45;75.58;98401.53;5051495;28;4573;-80
2023/01/30 14:40:43;;;;;;;;;;;;;;;5.46;75.56;98400.47;5046825;28;4579;-80
2023/01/30 14:43:10;;;;;;;;;;;;;;;5.49;75.45;98411.72;5050621;28;4366;-80